createdAt,value
2023-08-29T00:00:48.931Z,13.9
2023-08-29T00:01:48.963Z,13.9
2023-08-29T00:02:49.014Z,13.9
2023-08-29T00:03:49.075Z,13.9
2023-08-29T00:04:48.882Z,13.9
2023-08-29T00:05:48.892Z,13.9
2023-08-29T00:06:49.022Z,13.9
2023-08-29T00:07:48.998Z,13.9
2023-08-29T00:08:49.027Z,13.8
2023-08-29T00:09:48.923Z,13.8
2023-08-29T00:10:49.024Z,13.8
2023-08-29T00:11:48.894Z,13.9
2023-08-29T00:12:48.935Z,13.9
2023-08-29T00:13:48.943Z,13.9
2023-08-29T00:14:49.001Z,13.9
2023-08-29T00:15:49.040Z,13.9
2023-08-29T00:16:48.989Z,13.9
2023-08-29T00:17:48.962Z,13.8
2023-08-29T00:18:49.006Z,13.8
2023-08-29T00:19:48.907Z,13.8
2023-08-29T00:20:48.878Z,13.8
2023-08-29T00:21:48.932Z,13.8
2023-08-29T00:22:48.912Z,13.8
2023-08-29T00:23:48.936Z,13.8
2023-08-29T00:24:49.043Z,13.8
2023-08-29T00:25:48.924Z,13.8
2023-08-29T00:26:48.934Z,13.8
2023-08-29T00:27:48.933Z,13.8
2023-08-29T00:28:48.943Z,13.8
2023-08-29T00:29:48.934Z,13.8
2023-08-29T00:30:48.888Z,13.8
2023-08-29T00:31:49.045Z,13.9
2023-08-29T00:32:48.936Z,13.9
2023-08-29T00:33:48.973Z,13.9
2023-08-29T00:34:48.978Z,13.9
2023-08-29T00:35:49.024Z,13.9
2023-08-29T00:36:48.993Z,13.9
2023-08-29T00:37:48.932Z,13.8
2023-08-29T00:38:48.919Z,13.8
2023-08-29T00:39:48.910Z,13.9
2023-08-29T00:40:49.025Z,13.8
2023-08-29T00:41:49.030Z,13.8
2023-08-29T00:42:48.930Z,13.9
2023-08-29T00:43:48.948Z,13.8
2023-08-29T00:44:48.898Z,13.8
2023-08-29T00:45:48.921Z,13.8
2023-08-29T00:46:48.978Z,13.8
2023-08-29T00:47:48.988Z,13.8
2023-08-29T00:48:48.970Z,13.8
2023-08-29T00:49:48.970Z,13.7
2023-08-29T00:50:48.985Z,13.7
2023-08-29T00:51:48.997Z,13.7
2023-08-29T00:52:48.996Z,13.6
2023-08-29T00:53:48.921Z,13.6
2023-08-29T00:54:49.015Z,13.7
2023-08-29T00:55:48.916Z,13.7
2023-08-29T00:56:49.037Z,13.7
2023-08-29T00:57:49.032Z,13.7
2023-08-29T00:58:48.946Z,13.7
2023-08-29T00:59:48.967Z,13.7
2023-08-29T01:00:48.943Z,13.7
2023-08-29T01:01:48.998Z,13.7
2023-08-29T01:02:48.999Z,13.7
2023-08-29T01:03:49.017Z,13.8
2023-08-29T01:04:48.982Z,13.8
2023-08-29T01:05:48.989Z,13.8
2023-08-29T01:06:48.912Z,13.7
2023-08-29T01:07:49.007Z,13.8
2023-08-29T01:08:49.004Z,13.8
2023-08-29T01:09:48.900Z,13.9
2023-08-29T01:10:49.021Z,13.9
2023-08-29T01:11:48.926Z,13.8
2023-08-29T01:12:49.036Z,13.9
2023-08-29T01:13:49.051Z,13.9
2023-08-29T01:14:48.943Z,13.9
2023-08-29T01:15:48.986Z,13.9
2023-08-29T01:16:48.906Z,14
2023-08-29T01:17:49.034Z,14
2023-08-29T01:18:48.978Z,13.9
2023-08-29T01:19:48.892Z,14
2023-08-29T01:20:48.984Z,13.9
2023-08-29T01:21:48.935Z,13.9
2023-08-29T01:22:49.097Z,13.9
2023-08-29T01:23:48.993Z,14
2023-08-29T01:24:48.999Z,14
2023-08-29T01:25:48.928Z,14
2023-08-29T01:26:48.947Z,13.9
2023-08-29T01:27:48.927Z,13.9
2023-08-29T01:28:49.035Z,14
2023-08-29T01:29:48.945Z,14
2023-08-29T01:30:48.956Z,14
2023-08-29T01:31:49.003Z,14
2023-08-29T01:32:48.981Z,14
2023-08-29T01:33:48.966Z,14
2023-08-29T01:34:48.998Z,14
2023-08-29T01:35:48.901Z,14
2023-08-29T01:36:48.901Z,14
2023-08-29T01:37:48.997Z,14
2023-08-29T01:38:48.997Z,14
2023-08-29T01:39:49.015Z,14
2023-08-29T01:40:49.010Z,13.9
2023-08-29T01:41:48.928Z,13.9
2023-08-29T01:42:48.898Z,13.9
2023-08-29T01:43:49.024Z,13.9
2023-08-29T01:44:48.974Z,13.9
2023-08-29T01:45:49.015Z,14
2023-08-29T01:46:48.954Z,14
2023-08-29T01:47:48.981Z,14
2023-08-29T01:48:48.904Z,14
2023-08-29T01:49:48.924Z,14.1
2023-08-29T01:50:49.000Z,14.1
2023-08-29T01:51:48.987Z,14.1
2023-08-29T01:52:49.006Z,14.1
2023-08-29T01:53:48.940Z,14
2023-08-29T01:54:48.941Z,14
2023-08-29T01:55:49.040Z,14
2023-08-29T01:56:48.912Z,14
2023-08-29T01:57:48.937Z,14
2023-08-29T01:58:48.937Z,14
2023-08-29T01:59:48.952Z,13.9
2023-08-29T02:00:49.022Z,13.9
2023-08-29T02:01:48.972Z,14
2023-08-29T02:02:48.983Z,14
2023-08-29T02:03:49.036Z,14
2023-08-29T02:04:48.985Z,14
2023-08-29T02:05:49.003Z,14
2023-08-29T02:06:48.996Z,13.8
2023-08-29T02:07:49.017Z,13.9
2023-08-29T02:08:48.925Z,13.9
2023-08-29T02:09:48.932Z,13.9
2023-08-29T02:10:48.934Z,13.9
2023-08-29T02:11:48.916Z,13.8
2023-08-29T02:12:48.922Z,13.9
2023-08-29T02:13:48.940Z,13.9
2023-08-29T02:14:48.942Z,13.9
2023-08-29T02:15:48.962Z,13.9
2023-08-29T02:16:49.227Z,13.9
2023-08-29T02:17:48.988Z,13.9
2023-08-29T02:18:48.963Z,13.9
2023-08-29T02:19:48.984Z,13.9
2023-08-29T02:20:48.971Z,14
2023-08-29T02:21:48.985Z,14
2023-08-29T02:22:48.984Z,14
2023-08-29T02:23:48.924Z,13.9
2023-08-29T02:24:48.972Z,13.9
2023-08-29T02:25:49.013Z,13.9
2023-08-29T02:26:49.020Z,13.7
2023-08-29T02:27:48.908Z,13.7
2023-08-29T02:28:49.031Z,13.7
2023-08-29T02:29:48.941Z,13.8
2023-08-29T02:30:48.969Z,13.8
2023-08-29T02:31:48.945Z,13.8
2023-08-29T02:32:48.974Z,13.8
2023-08-29T02:33:48.957Z,13.8
2023-08-29T02:34:48.960Z,13.8
2023-08-29T02:35:48.974Z,13.8
2023-08-29T02:36:48.975Z,13.8
2023-08-29T02:37:49.003Z,13.7
2023-08-29T02:38:49.176Z,13.7
2023-08-29T02:39:48.994Z,13.7
2023-08-29T02:40:48.998Z,13.7
2023-08-29T02:41:48.905Z,13.6
2023-08-29T02:42:49.422Z,13.6
2023-08-29T02:43:48.921Z,13.6
2023-08-29T02:44:48.928Z,13.6
2023-08-29T02:45:48.938Z,13.5
2023-08-29T02:46:48.935Z,13.5
2023-08-29T02:47:48.983Z,13.5
2023-08-29T02:48:48.960Z,13.5
2023-08-29T02:49:48.967Z,13.5
2023-08-29T02:50:48.969Z,13.4
2023-08-29T02:51:48.925Z,13.4
2023-08-29T02:52:48.986Z,13.4
2023-08-29T02:53:49.001Z,13.4
2023-08-29T02:54:49.007Z,13.3
2023-08-29T02:55:49.008Z,13.3
2023-08-29T02:56:49.021Z,13.3
2023-08-29T02:57:49.028Z,13.3
2023-08-29T02:58:49.029Z,13.2
2023-08-29T02:59:49.047Z,13.2
2023-08-29T03:00:49.333Z,13.3
2023-08-29T03:01:49.075Z,13.3
2023-08-29T03:02:48.964Z,13.3
2023-08-29T03:03:48.992Z,13.3
2023-08-29T03:04:48.937Z,13.3
2023-08-29T03:05:48.918Z,13.3
2023-08-29T03:06:48.972Z,13.3
2023-08-29T03:07:48.985Z,13.3
2023-08-29T03:08:48.989Z,13.3
2023-08-29T03:09:49.008Z,13.3
2023-08-29T03:10:49.030Z,13.3
2023-08-29T03:11:49.023Z,13.3
2023-08-29T03:12:49.014Z,13.3
2023-08-29T03:13:48.940Z,13.3
2023-08-29T03:14:49.039Z,13.3
2023-08-29T03:15:49.041Z,13.3
2023-08-29T03:16:48.976Z,13.3
2023-08-29T03:17:48.964Z,13.3
2023-08-29T03:18:48.946Z,13.3
2023-08-29T03:19:48.992Z,13.3
2023-08-29T03:20:48.975Z,13.3
2023-08-29T03:21:48.969Z,13.3
2023-08-29T03:22:49.007Z,13.2
2023-08-29T03:23:48.988Z,13.2
2023-08-29T03:24:49.008Z,13.2
2023-08-29T03:25:49.049Z,13.2
2023-08-29T03:26:49.008Z,13.2
2023-08-29T03:27:49.060Z,13.2
2023-08-29T03:28:48.904Z,13.2
2023-08-29T03:29:48.930Z,13.2
2023-08-29T03:30:49.038Z,13.2
2023-08-29T03:31:49.069Z,13.2
2023-08-29T03:32:49.066Z,13.2
2023-08-29T03:33:48.964Z,13.2
2023-08-29T03:34:48.965Z,13.1
2023-08-29T03:35:49.286Z,13.1
2023-08-29T03:36:48.957Z,13.1
2023-08-29T03:37:48.971Z,13.1
2023-08-29T03:38:49.000Z,13.1
2023-08-29T03:39:49.002Z,13.1
2023-08-29T03:40:48.936Z,13.1
2023-08-29T03:41:48.936Z,13.1
2023-08-29T03:42:48.967Z,13.1
2023-08-29T03:43:48.916Z,13.1
2023-08-29T03:44:48.913Z,13.2
2023-08-29T03:45:48.985Z,13.2
2023-08-29T03:46:48.930Z,13.2
2023-08-29T03:47:49.095Z,13.2
2023-08-29T03:48:48.949Z,13.2
2023-08-29T03:49:48.947Z,13.2
2023-08-29T03:50:48.968Z,13.2
2023-08-29T03:51:48.994Z,13.2
2023-08-29T03:52:48.979Z,13.2
2023-08-29T03:53:48.981Z,13.2
2023-08-29T03:54:49.000Z,13.2
2023-08-29T03:55:48.953Z,13.2
2023-08-29T03:56:48.931Z,13.2
2023-08-29T03:57:48.935Z,13.2
2023-08-29T03:58:49.013Z,13.2
2023-08-29T03:59:49.004Z,13.2
2023-08-29T04:00:48.928Z,13.2
2023-08-29T04:01:48.913Z,13.1
2023-08-29T04:02:49.023Z,13.1
2023-08-29T04:03:52.602Z,13.2
2023-08-29T04:04:49.146Z,13.1
2023-08-29T04:05:49.165Z,13.3
2023-08-29T04:06:48.915Z,13.3
2023-08-29T04:07:48.935Z,13.4
2023-08-29T04:08:48.927Z,13.3
2023-08-29T04:09:48.917Z,13.4
2023-08-29T04:10:48.924Z,13.4
2023-08-29T04:11:48.942Z,13.5
2023-08-29T04:12:48.953Z,13.6
2023-08-29T04:13:48.921Z,13.7
2023-08-29T04:14:49.031Z,13.7
2023-08-29T04:15:48.928Z,13.7
2023-08-29T04:16:48.937Z,13.7
2023-08-29T04:17:49.048Z,13.7
2023-08-29T04:18:48.952Z,13.7
2023-08-29T04:19:49.041Z,13.7
2023-08-29T04:20:48.974Z,13.7
2023-08-29T04:21:48.934Z,13.7
2023-08-29T04:22:48.968Z,13.6
2023-08-29T04:23:48.941Z,13.6
2023-08-29T04:24:48.934Z,13.6
2023-08-29T04:25:48.979Z,13.6
2023-08-29T04:26:49.011Z,13.6
2023-08-29T04:27:48.928Z,13.6
2023-08-29T04:28:48.954Z,13.5
2023-08-29T04:29:48.920Z,13.5
2023-08-29T04:30:48.943Z,13.5
2023-08-29T04:31:48.936Z,13.5
2023-08-29T04:32:48.920Z,13.5
2023-08-29T04:33:48.897Z,13.5
2023-08-29T04:34:48.913Z,13.5
2023-08-29T04:35:49.005Z,13.5
2023-08-29T04:36:48.974Z,13.5
2023-08-29T04:37:48.916Z,13.5
2023-08-29T04:38:49.022Z,13.5
2023-08-29T04:39:48.916Z,13.5
2023-08-29T04:40:48.921Z,13.5
2023-08-29T04:41:48.929Z,13.5
2023-08-29T04:42:48.934Z,13.5
2023-08-29T04:43:49.009Z,13.5
2023-08-29T04:44:48.961Z,13.5
2023-08-29T04:45:48.982Z,13.5
2023-08-29T04:46:49.032Z,13.6
2023-08-29T04:47:49.045Z,13.6
2023-08-29T04:48:49.028Z,13.6
2023-08-29T04:49:48.906Z,13.6
2023-08-29T04:50:48.947Z,13.6
2023-08-29T04:51:49.220Z,13.6
2023-08-29T04:52:48.957Z,13.5
2023-08-29T04:53:48.980Z,13.6
2023-08-29T04:54:48.979Z,13.6
2023-08-29T04:55:48.982Z,13.6
2023-08-29T04:56:49.010Z,13.6
2023-08-29T04:57:49.030Z,13.6
2023-08-29T04:58:49.026Z,13.6
2023-08-29T04:59:48.936Z,13.5
2023-08-29T05:00:49.006Z,13.6
2023-08-29T05:01:50.860Z,13.7
2023-08-29T05:02:48.968Z,13.7
2023-08-29T05:03:48.952Z,13.7
2023-08-29T05:04:49.044Z,13.7
2023-08-29T05:05:48.945Z,13.7
2023-08-29T05:06:48.964Z,13.6
2023-08-29T05:07:49.008Z,13.7
2023-08-29T05:08:48.977Z,13.7
2023-08-29T05:09:48.982Z,13.6
2023-08-29T05:10:48.999Z,13.6
2023-08-29T05:11:48.925Z,13.6
2023-08-29T05:12:48.930Z,13.6
2023-08-29T05:13:49.013Z,13.6
2023-08-29T05:14:49.019Z,13.7
2023-08-29T05:15:48.980Z,13.6
2023-08-29T05:16:49.032Z,13.7
2023-08-29T05:17:49.083Z,13.6
2023-08-29T05:18:48.975Z,13.6
2023-08-29T05:19:48.943Z,13.7
2023-08-29T05:20:48.963Z,13.7
2023-08-29T05:21:48.966Z,13.7
2023-08-29T05:22:48.971Z,13.6
2023-08-29T05:23:48.969Z,13.7
2023-08-29T05:24:48.979Z,13.7
2023-08-29T05:25:48.988Z,13.7
2023-08-29T05:26:48.925Z,13.7
2023-08-29T05:27:48.991Z,13.7
2023-08-29T05:28:49.001Z,13.7
2023-08-29T05:29:48.911Z,13.7
2023-08-29T05:30:48.916Z,13.8
2023-08-29T05:31:48.927Z,13.8
2023-08-29T05:32:48.965Z,13.8
2023-08-29T05:33:48.968Z,13.8
2023-08-29T05:34:48.920Z,13.8
2023-08-29T05:35:48.930Z,13.8
2023-08-29T05:36:48.926Z,13.9
2023-08-29T05:37:48.940Z,13.9
2023-08-29T05:38:49.024Z,13.9
2023-08-29T05:39:48.927Z,13.9
2023-08-29T05:40:48.983Z,13.9
2023-08-29T05:41:49.011Z,13.9
2023-08-29T05:42:49.054Z,13.9
2023-08-29T05:43:48.940Z,13.9
2023-08-29T05:44:48.910Z,13.9
2023-08-29T05:45:48.999Z,13.9
2023-08-29T05:46:48.964Z,13.9
2023-08-29T05:47:49.131Z,13.9
2023-08-29T05:48:48.952Z,14
2023-08-29T05:49:49.000Z,14
2023-08-29T05:50:48.932Z,14
2023-08-29T05:51:51.815Z,14
2023-08-29T05:52:48.940Z,14
2023-08-29T05:53:48.959Z,14
2023-08-29T05:54:48.966Z,14
2023-08-29T05:55:48.948Z,14
2023-08-29T05:56:48.953Z,13.9
2023-08-29T05:57:49.031Z,14
2023-08-29T05:58:48.950Z,14
2023-08-29T05:59:48.945Z,14
2023-08-29T06:00:48.959Z,14
2023-08-29T06:01:48.996Z,14
2023-08-29T06:02:49.027Z,14
2023-08-29T06:03:49.006Z,14
2023-08-29T06:04:48.956Z,14
2023-08-29T06:05:49.009Z,14
2023-08-29T06:06:48.918Z,14
2023-08-29T06:07:48.920Z,14
2023-08-29T06:08:48.928Z,14
2023-08-29T06:09:48.932Z,14
2023-08-29T06:10:49.030Z,14
2023-08-29T06:11:49.000Z,14.1
2023-08-29T06:12:49.013Z,14.1
2023-08-29T06:13:49.018Z,14.1
2023-08-29T06:14:49.009Z,14.1
2023-08-29T06:15:49.024Z,14.2
2023-08-29T06:16:49.118Z,14.2
2023-08-29T06:17:49.047Z,14.3
2023-08-29T06:18:49.064Z,14.3
2023-08-29T06:19:49.064Z,14.4
2023-08-29T06:20:48.955Z,14.4
2023-08-29T06:21:49.052Z,14.4
2023-08-29T06:22:48.930Z,14.4
2023-08-29T06:23:48.990Z,14.4
2023-08-29T06:24:48.985Z,14.4
2023-08-29T06:25:49.078Z,14.4
2023-08-29T06:26:48.998Z,14.3
2023-08-29T06:27:48.983Z,14.4
2023-08-29T06:28:48.986Z,14.4
2023-08-29T06:29:49.002Z,14.4
2023-08-29T06:30:49.057Z,14.4
2023-08-29T06:31:49.032Z,14.4
2023-08-29T06:32:49.041Z,14.5
2023-08-29T06:33:48.937Z,14.4
2023-08-29T06:34:49.033Z,14.5
2023-08-29T06:35:48.935Z,14.5
2023-08-29T06:36:48.927Z,14.5
2023-08-29T06:37:49.055Z,14.6
2023-08-29T06:38:49.065Z,14.6
2023-08-29T06:39:48.966Z,14.6
2023-08-29T06:40:48.988Z,14.7
2023-08-29T06:41:48.993Z,14.8
2023-08-29T06:42:49.004Z,14.8
2023-08-29T06:43:49.008Z,14.8
2023-08-29T06:44:48.996Z,14.8
2023-08-29T06:45:48.956Z,14.8
2023-08-29T06:46:49.168Z,14.7
2023-08-29T06:47:49.067Z,14.8
2023-08-29T06:48:49.047Z,14.8
2023-08-29T06:49:49.143Z,14.8
2023-08-29T06:50:48.933Z,14.7
2023-08-29T06:51:48.991Z,14.8
2023-08-29T06:52:48.951Z,14.8
2023-08-29T06:53:48.981Z,14.7
2023-08-29T06:54:49.074Z,14.7
2023-08-29T06:55:48.961Z,14.8
2023-08-29T06:56:48.989Z,14.7
2023-08-29T06:57:48.940Z,14.8
2023-08-29T06:58:48.994Z,14.7
2023-08-29T06:59:49.012Z,14.7
2023-08-29T07:00:49.049Z,14.7
2023-08-29T07:01:50.406Z,14.6
2023-08-29T07:02:49.097Z,14.6
2023-08-29T07:03:49.029Z,14.6
2023-08-29T07:04:49.041Z,14.6
2023-08-29T07:05:49.049Z,14.6
2023-08-29T07:06:48.946Z,14.6
2023-08-29T07:07:48.978Z,14.6
2023-08-29T07:08:48.957Z,14.6
2023-08-29T07:09:48.957Z,14.6
2023-08-29T07:10:48.969Z,14.6
2023-08-29T07:11:48.983Z,14.7
2023-08-29T07:12:48.984Z,14.8
2023-08-29T07:13:48.985Z,14.8
2023-08-29T07:14:48.997Z,14.7
2023-08-29T07:15:49.019Z,14.7
2023-08-29T07:17:04.184Z,14.8
2023-08-29T07:17:48.964Z,14.8
2023-08-29T07:18:48.972Z,14.8
2023-08-29T07:19:49.013Z,14.7
2023-08-29T07:20:48.941Z,14.7
2023-08-29T07:21:48.954Z,14.8
2023-08-29T07:22:48.962Z,14.7
2023-08-29T07:23:48.928Z,14.7
2023-08-29T07:24:49.048Z,14.8
2023-08-29T07:25:48.929Z,14.8
2023-08-29T07:26:48.972Z,14.7
2023-08-29T07:27:48.955Z,14.8
2023-08-29T07:28:48.932Z,14.8
2023-08-29T07:29:49.004Z,14.9
2023-08-29T07:30:49.093Z,14.8
2023-08-29T07:31:48.925Z,14.9
2023-08-29T07:32:49.019Z,14.9
2023-08-29T07:33:49.042Z,14.9
2023-08-29T07:34:48.993Z,14.9
2023-08-29T07:35:49.034Z,14.9
2023-08-29T07:36:49.038Z,15
2023-08-29T07:37:49.052Z,14.9
2023-08-29T07:38:48.949Z,14.9
2023-08-29T07:39:48.951Z,14.9
2023-08-29T07:40:48.976Z,15
2023-08-29T07:41:48.986Z,14.9
2023-08-29T07:42:48.979Z,14.9
2023-08-29T07:43:48.989Z,14.9
2023-08-29T07:44:48.945Z,14.9
2023-08-29T07:45:49.215Z,15
2023-08-29T07:47:03.709Z,15.1
2023-08-29T07:47:48.970Z,15.1
2023-08-29T07:48:49.020Z,15.1
2023-08-29T07:49:49.026Z,15.2
2023-08-29T07:50:49.032Z,15.2
2023-08-29T07:51:49.075Z,15.1
2023-08-29T07:52:48.955Z,15
2023-08-29T07:53:49.000Z,15.1
2023-08-29T07:54:48.975Z,15.1
2023-08-29T07:55:48.987Z,15.1
2023-08-29T07:56:48.953Z,15.1
2023-08-29T07:57:48.996Z,15.1
2023-08-29T07:58:48.986Z,15.2
2023-08-29T07:59:48.999Z,15.3
2023-08-29T08:00:48.947Z,15.4
2023-08-29T08:01:49.018Z,15.3
2023-08-29T08:02:49.051Z,15.4
2023-08-29T08:03:49.151Z,15.4
2023-08-29T08:04:49.032Z,15.4
2023-08-29T08:05:49.036Z,15.5
2023-08-29T08:06:49.104Z,15.5
2023-08-29T08:07:49.038Z,15.6
2023-08-29T08:08:49.029Z,15.6
2023-08-29T08:09:48.950Z,15.7
2023-08-29T08:10:48.978Z,15.6
2023-08-29T08:11:48.938Z,15.5
2023-08-29T08:12:48.996Z,15.5
2023-08-29T08:13:48.992Z,15.5
2023-08-29T08:14:48.977Z,15.6
2023-08-29T08:15:48.985Z,15.6
2023-08-29T08:16:49.044Z,15.6
2023-08-29T08:17:49.038Z,15.6
2023-08-29T08:18:49.013Z,15.7
2023-08-29T08:19:49.013Z,15.8
2023-08-29T08:20:49.025Z,15.9
2023-08-29T08:21:51.182Z,16
2023-08-29T08:22:48.950Z,16
2023-08-29T08:23:48.965Z,16
2023-08-29T08:24:48.976Z,16
2023-08-29T08:25:48.963Z,15.9
2023-08-29T08:26:48.965Z,15.9
2023-08-29T08:27:48.987Z,15.9
2023-08-29T08:28:48.971Z,16
2023-08-29T08:29:48.983Z,16.1
2023-08-29T08:30:49.013Z,16.2
2023-08-29T08:31:49.056Z,16.2
2023-08-29T08:32:49.027Z,16.2
2023-08-29T08:33:49.047Z,16.1
2023-08-29T08:34:49.034Z,16.1
2023-08-29T08:35:57.149Z,16.1
2023-08-29T08:36:49.035Z,16.2
2023-08-29T08:37:48.938Z,16.4
2023-08-29T08:38:48.942Z,16.4
2023-08-29T08:39:48.971Z,16.4
2023-08-29T08:40:48.986Z,16.5
2023-08-29T08:41:48.947Z,16.5
2023-08-29T08:42:48.940Z,16.3
2023-08-29T08:43:49.003Z,16.4
2023-08-29T08:44:48.981Z,16.3
2023-08-29T08:45:48.956Z,16.3
2023-08-29T08:46:49.024Z,16.4
2023-08-29T08:47:49.038Z,16.4
2023-08-29T08:48:49.021Z,16.6
2023-08-29T08:49:48.939Z,16.7
2023-08-29T08:50:48.934Z,16.8
2023-08-29T08:51:48.943Z,16.7
2023-08-29T08:52:49.097Z,16.8
2023-08-29T08:53:48.956Z,16.9
2023-08-29T08:54:49.078Z,17
2023-08-29T08:55:48.941Z,17.1
2023-08-29T08:56:48.976Z,17.2
2023-08-29T08:57:48.950Z,17.3
2023-08-29T08:58:48.954Z,17.1
2023-08-29T08:59:48.938Z,17.2
2023-08-29T09:00:48.960Z,17.3
2023-08-29T09:01:48.956Z,17.3
2023-08-29T09:02:48.948Z,17.3
2023-08-29T09:03:49.019Z,17.4
2023-08-29T09:04:48.979Z,17.3
2023-08-29T09:05:48.994Z,17.4
2023-08-29T09:06:48.940Z,17.4
2023-08-29T09:07:48.945Z,17.3
2023-08-29T09:08:48.938Z,17.5
2023-08-29T09:09:48.930Z,17.5
2023-08-29T09:10:48.965Z,17.6
2023-08-29T09:11:48.949Z,17.7
2023-08-29T09:12:48.956Z,17.8
2023-08-29T09:13:49.000Z,17.8
2023-08-29T09:14:48.942Z,17.9
2023-08-29T09:15:49.030Z,18
2023-08-29T09:16:48.954Z,18.1
2023-08-29T09:17:49.022Z,17.8
2023-08-29T09:18:48.940Z,17.5
2023-08-29T09:19:49.011Z,17.6
2023-08-29T09:20:48.979Z,17.9
2023-08-29T09:21:49.129Z,17.9
2023-08-29T09:22:49.214Z,17.7
2023-08-29T09:23:49.038Z,17.7
2023-08-29T09:24:48.947Z,17.8
2023-08-29T09:25:49.035Z,18
2023-08-29T09:26:48.945Z,18
2023-08-29T09:27:48.945Z,18.2
2023-08-29T09:28:48.963Z,18.2
2023-08-29T09:29:49.091Z,18.3
2023-08-29T09:30:48.960Z,18.2
2023-08-29T09:31:48.992Z,18.2
2023-08-29T09:32:49.078Z,18
2023-08-29T09:33:49.017Z,18
2023-08-29T09:34:49.004Z,18.1
2023-08-29T09:35:48.937Z,18.1
2023-08-29T09:36:48.990Z,18.2
2023-08-29T09:37:49.021Z,18.3
2023-08-29T09:38:48.946Z,18.1
2023-08-29T09:39:48.956Z,18.2
2023-08-29T09:40:49.948Z,18.3
2023-08-29T09:41:48.977Z,18.3
2023-08-29T09:42:48.973Z,18.6
2023-08-29T09:43:49.073Z,18.5
2023-08-29T09:44:48.971Z,18.5
2023-08-29T09:45:49.036Z,18.8
2023-08-29T09:46:48.983Z,18.9
2023-08-29T09:47:49.072Z,19
2023-08-29T09:48:48.931Z,18.8
2023-08-29T09:49:49.000Z,18.8
2023-08-29T09:50:49.004Z,18.8
2023-08-29T09:51:49.012Z,18.8
2023-08-29T09:52:48.942Z,18.8
2023-08-29T09:53:49.028Z,18.8
2023-08-29T09:54:49.039Z,18.9
2023-08-29T09:55:49.052Z,18.9
2023-08-29T09:56:49.075Z,19.2
2023-08-29T09:57:48.980Z,19.4
2023-08-29T09:58:48.968Z,19.4
2023-08-29T09:59:48.973Z,19.5
2023-08-29T10:00:49.021Z,19.8
2023-08-29T10:01:49.014Z,19.6
2023-08-29T10:02:49.166Z,19.4
2023-08-29T10:03:49.006Z,19.4
2023-08-29T10:04:48.949Z,19.4
2023-08-29T10:05:48.942Z,19.2
2023-08-29T10:06:48.965Z,19.3
2023-08-29T10:07:48.966Z,19.2
2023-08-29T10:08:48.953Z,19
2023-08-29T10:09:49.000Z,19.2
2023-08-29T10:10:49.031Z,19.4
2023-08-29T10:11:54.741Z,19.5
2023-08-29T10:12:49.057Z,19.7
2023-08-29T10:13:49.034Z,19.5
2023-08-29T10:14:48.985Z,19.5
2023-08-29T10:15:49.087Z,19.7
2023-08-29T10:16:49.005Z,19.5
2023-08-29T10:17:49.118Z,19.5
2023-08-29T10:18:48.985Z,19.7
2023-08-29T10:19:48.950Z,19.8
2023-08-29T10:20:48.946Z,19.9
2023-08-29T10:21:48.957Z,20.1
2023-08-29T10:22:48.942Z,19.9
2023-08-29T10:23:49.028Z,20
2023-08-29T10:24:49.022Z,20.2
2023-08-29T10:25:48.982Z,20.1
2023-08-29T10:26:49.064Z,20
2023-08-29T10:27:49.066Z,19.9
2023-08-29T10:28:49.077Z,20
2023-08-29T10:29:48.967Z,19.9
2023-08-29T10:30:49.038Z,19.6
2023-08-29T10:31:48.959Z,19.8
2023-08-29T10:32:49.556Z,19.9
2023-08-29T10:33:49.029Z,19.9
2023-08-29T10:34:49.005Z,19.9
2023-08-29T10:35:48.950Z,20.3
2023-08-29T10:36:49.010Z,20
2023-08-29T10:37:49.334Z,20.3
2023-08-29T10:38:48.950Z,20.3
2023-08-29T10:39:49.040Z,20
2023-08-29T10:40:49.037Z,19.7
2023-08-29T10:41:48.951Z,19.7
2023-08-29T10:42:49.023Z,19.7
2023-08-29T10:43:48.956Z,19.6
2023-08-29T10:44:48.938Z,19.7
2023-08-29T10:45:48.970Z,19.8
2023-08-29T10:46:49.007Z,19.8
2023-08-29T10:47:49.018Z,19.8
2023-08-29T10:48:48.937Z,20.2
2023-08-29T10:49:48.988Z,20.5
2023-08-29T10:50:49.003Z,20.6
2023-08-29T10:51:49.042Z,20.4
2023-08-29T10:52:48.954Z,20.4
2023-08-29T10:53:49.063Z,20.3
2023-08-29T10:54:49.025Z,20.3
2023-08-29T10:55:49.021Z,20.7
2023-08-29T10:56:49.301Z,21.1
2023-08-29T10:57:49.343Z,21.1
2023-08-29T10:58:49.425Z,20.5
2023-08-29T10:59:49.109Z,20.1
2023-08-29T11:00:49.001Z,20.5
2023-08-29T11:01:48.992Z,20.4
2023-08-29T11:02:49.141Z,19.9
2023-08-29T11:03:49.027Z,20
2023-08-29T11:05:49.051Z,20.1
2023-08-29T11:06:49.024Z,20.3
2023-08-29T11:07:49.034Z,19.8
2023-08-29T11:08:49.027Z,20.1
2023-08-29T11:09:49.042Z,20.1
2023-08-29T11:10:49.037Z,20.2
2023-08-29T11:11:48.952Z,20.4
2023-08-29T11:12:48.949Z,20.5
2023-08-29T11:13:49.080Z,20.4
2023-08-29T11:14:49.062Z,20.5
2023-08-29T11:15:48.986Z,20.5
2023-08-29T11:16:48.974Z,20.4
2023-08-29T11:17:49.102Z,20.5
2023-08-29T11:18:48.966Z,20.4
2023-08-29T11:19:48.993Z,20.3
2023-08-29T11:20:48.950Z,20
2023-08-29T11:21:48.989Z,20.2
2023-08-29T11:22:48.983Z,20.4
2023-08-29T11:23:53.676Z,19.6
2023-08-29T11:24:49.022Z,20.3
2023-08-29T11:25:49.032Z,20.4
2023-08-29T11:26:49.038Z,19.9
2023-08-29T11:27:49.034Z,19.8
2023-08-29T11:28:49.044Z,20
2023-08-29T11:29:50.735Z,19.8
2023-08-29T11:30:49.127Z,20.1
2023-08-29T11:31:49.073Z,20.2
2023-08-29T11:32:48.990Z,20.2
2023-08-29T11:33:48.974Z,20.2
2023-08-29T11:34:48.981Z,20.3
2023-08-29T11:35:48.971Z,20.2
2023-08-29T11:36:48.962Z,19.5
2023-08-29T11:37:49.012Z,19.6
2023-08-29T11:38:52.428Z,19.7
2023-08-29T11:39:48.990Z,19.9
2023-08-29T11:41:02.777Z,19.6
2023-08-29T11:42:01.865Z,19.7
2023-08-29T11:43:03.508Z,19.9
2023-08-29T11:44:24.827Z,20.3
2023-08-29T11:45:20.687Z,20.3
2023-08-29T11:45:50.560Z,20.5
2023-08-29T11:46:49.015Z,20.6
2023-08-29T11:47:49.050Z,20.6
2023-08-29T11:48:48.942Z,20.9
2023-08-29T11:49:48.983Z,20.9
2023-08-29T11:50:48.969Z,20.6
2023-08-29T11:51:48.983Z,20.4
2023-08-29T11:52:48.965Z,19.8
2023-08-29T11:53:48.958Z,19.9
2023-08-29T11:54:49.044Z,19.9
2023-08-29T11:55:49.003Z,19.8
2023-08-29T11:56:49.066Z,19.3
2023-08-29T11:57:49.061Z,19.2
2023-08-29T11:58:49.061Z,19.5
2023-08-29T11:59:49.058Z,19.1
2023-08-29T12:00:49.064Z,19.4
2023-08-29T12:01:49.174Z,19.7
2023-08-29T12:02:49.071Z,19.6
2023-08-29T12:03:49.023Z,19.3
2023-08-29T12:04:49.119Z,19.4
2023-08-29T12:05:48.971Z,19
2023-08-29T12:06:48.987Z,19.2
2023-08-29T12:07:48.958Z,19.1
2023-08-29T12:08:48.970Z,19
2023-08-29T12:09:49.029Z,18.9
2023-08-29T12:10:49.046Z,18
2023-08-29T12:11:49.041Z,18.3
2023-08-29T12:12:49.037Z,18.2
2023-08-29T12:13:48.980Z,18.2
2023-08-29T12:14:48.973Z,17.7
2023-08-29T12:15:49.001Z,17.4
2023-08-29T12:16:49.014Z,16.6
2023-08-29T12:17:49.018Z,17.1
2023-08-29T12:18:48.963Z,17
2023-08-29T12:19:49.111Z,17.4
2023-08-29T12:20:49.034Z,16.9
2023-08-29T12:21:48.978Z,16.8
2023-08-29T12:22:48.978Z,16.7
2023-08-29T12:23:48.963Z,17
2023-08-29T12:24:48.965Z,17
2023-08-29T12:25:48.998Z,16.2
2023-08-29T12:26:48.989Z,15.9
2023-08-29T12:27:49.035Z,16.3
2023-08-29T12:28:48.986Z,16.6
2023-08-29T12:29:48.984Z,16.3
2023-08-29T12:30:48.990Z,16.7
2023-08-29T12:31:48.962Z,16.1
2023-08-29T12:32:48.989Z,16.1
2023-08-29T12:33:48.978Z,15.3
2023-08-29T12:34:49.000Z,15.3
2023-08-29T12:35:48.970Z,16
2023-08-29T12:36:49.003Z,15.6
2023-08-29T12:37:49.007Z,16
2023-08-29T12:38:48.987Z,15.6
2023-08-29T12:39:48.970Z,59.2
2023-08-29T12:40:48.958Z,15.2
2023-08-29T12:41:48.963Z,15.2
2023-08-29T12:42:48.987Z,15.3
2023-08-29T12:43:48.977Z,16
2023-08-29T12:44:48.990Z,16.1
2023-08-29T12:45:59.193Z,16.1
2023-08-29T12:46:48.987Z,15.2
2023-08-29T12:47:49.056Z,15.4
2023-08-29T12:48:48.965Z,15.3
2023-08-29T12:49:48.975Z,15.5
2023-08-29T12:50:48.974Z,15.8
2023-08-29T12:51:48.973Z,16.1
2023-08-29T12:52:49.035Z,16.1
2023-08-29T12:53:49.003Z,16.1
2023-08-29T12:54:48.968Z,16.2
2023-08-29T12:55:48.981Z,16
2023-08-29T12:56:48.959Z,16.1
2023-08-29T12:57:48.972Z,16.2
2023-08-29T12:58:49.040Z,16.4
2023-08-29T12:59:48.970Z,16.3
2023-08-29T13:00:48.990Z,16.4
2023-08-29T13:01:49.047Z,16.3
2023-08-29T13:02:49.033Z,16.5
2023-08-29T13:03:49.048Z,16.4
2023-08-29T13:04:48.970Z,16
2023-08-29T13:05:48.975Z,16.4
2023-08-29T13:06:49.016Z,15.6
2023-08-29T13:07:49.022Z,15.5
2023-08-29T13:08:48.959Z,15.7
2023-08-29T13:09:49.014Z,15.9
2023-08-29T13:10:48.990Z,16
2023-08-29T13:11:48.989Z,15.9
2023-08-29T13:12:48.975Z,16.2
2023-08-29T13:13:48.978Z,16.6
2023-08-29T13:14:48.998Z,16.5
2023-08-29T13:15:51.591Z,16.5
2023-08-29T13:16:48.983Z,16.6
2023-08-29T13:17:49.083Z,16.2
2023-08-29T13:18:48.986Z,15.6
2023-08-29T13:19:48.982Z,15.3
2023-08-29T13:20:48.985Z,14.9
2023-08-29T13:21:48.978Z,15.1
2023-08-29T13:22:48.967Z,15.4
2023-08-29T13:23:48.970Z,15.5
2023-08-29T13:24:48.971Z,15.2
2023-08-29T13:25:49.010Z,15.5